Time;durP1;ratioP1;P1;durP2;ratioP2;P2;SDS_P1;SDS_P2;PMS_P1;PMS_P2;Temp;Humidity;BMP_temperature;BMP_pressure;BME280_temperature;BME280_humidity;BME280_pressure;Samples;Min_cycle;Max_cycle;Signal;HPM_P1;HPM_P2
2022/07/01 00:00:42;;;;;;;22.52;20.08;;;15.10;99.90;;;;;;5031652;28;20025;-70
2022/07/01 00:03:08;;;;;;;22.88;20.48;;;15.00;99.90;;;;;;5031997;28;20531;-70
2022/07/01 00:05:34;;;;;;;22.50;20.10;;;;;;;;;;5031684;28;20037;-70
2022/07/01 00:07:59;;;;;;;21.23;18.98;;;14.90;99.90;;;;;;5031735;28;20053;-69
2022/07/01 00:10:25;;;;;;;21.40;19.27;;;14.90;99.90;;;;;;5031743;28;20026;-70
2022/07/01 00:12:50;;;;;;;21.08;18.92;;;14.90;99.90;;;;;;5031045;28;20052;-70
2022/07/01 00:15:16;;;;;;;23.00;20.67;;;14.90;99.90;;;;;;5031601;28;20041;-70
2022/07/01 00:17:43;;;;;;;21.83;19.65;;;;;;;;;;5030019;28;20036;-70
2022/07/01 00:20:09;;;;;;;23.80;21.05;;;14.30;99.90;;;;;;5031290;28;20474;-70
2022/07/01 00:22:35;;;;;;;21.00;18.73;;;14.70;99.90;;;;;;5031257;28;20080;-70
2022/07/01 00:25:01;;;;;;;21.95;19.55;;;14.90;99.90;;;;;;5031220;28;20106;-70
2022/07/01 00:27:26;;;;;;;23.80;19.95;;;14.60;99.90;;;;;;5030960;28;20554;-70
2022/07/01 00:29:52;;;;;;;22.95;20.00;;;14.70;99.90;;;;;;5031126;28;20038;-69
2022/07/01 00:32:17;;;;;;;26.23;20.08;;;14.70;99.90;;;;;;5031124;28;20034;-70
2022/07/01 00:34:43;;;;;;;24.63;22.17;;;14.60;99.90;;;;;;5031151;28;20053;-70
2022/07/01 00:37:09;;;;;;;23.02;20.63;;;14.60;99.90;;;;;;5031074;28;20022;-70
2022/07/01 00:39:35;;;;;;;23.08;20.65;;;14.70;99.90;;;;;;5030999;28;20017;-70
2022/07/01 00:42:03;;;;;;;24.02;21.42;;;14.70;99.90;;;;;;5030395;28;20029;-70
2022/07/01 00:44:29;;;;;;;25.42;22.85;;;15.10;99.90;;;;;;5030257;28;20021;-70
2022/07/01 00:46:57;;;;;;;26.50;23.70;;;14.80;99.90;;;;;;5030995;28;20033;-70
2022/07/01 00:49:25;;;;;;;29.55;25.83;;;14.90;99.90;;;;;;5030631;28;20038;-70
2022/07/01 00:51:51;;;;;;;26.95;23.42;;;14.80;99.90;;;;;;5030901;28;20028;-70
2022/07/01 00:54:17;;;;;;;25.75;22.92;;;14.90;99.90;;;;;;5030667;28;20025;-70
2022/07/01 00:56:42;;;;;;;30.35;26.85;;;14.90;99.90;;;;;;5030176;28;20374;-70
2022/07/01 00:59:08;;;;;;;30.90;26.30;;;14.90;99.90;;;;;;5030483;28;20047;-70
2022/07/01 01:01:34;;;;;;;33.13;25.73;;;;;;;;;;5030368;28;20176;-70
2022/07/01 01:04:00;;;;;;;33.47;28.02;;;14.80;99.90;;;;;;5030321;28;20493;-69
2022/07/01 01:06:26;;;;;;;40.05;29.95;;;15.10;99.90;;;;;;5029402;28;20116;-70
2022/07/01 01:08:52;;;;;;;44.47;31.95;;;14.90;99.90;;;;;;5030295;28;20053;-70
2022/07/01 01:11:18;;;;;;;45.88;34.85;;;;;;;;;;5029900;28;20501;-69
2022/07/01 01:13:43;;;;;;;53.65;35.97;;;14.70;99.90;;;;;;5030110;28;20037;-70
2022/07/01 01:16:19;;;;;;;43.92;32.60;;;14.80;99.90;;;;;;5030317;28;20021;-69
2022/07/01 01:18:45;;;;;;;51.67;37.58;;;14.70;99.90;;;;;;5030374;28;20026;-70
2022/07/01 01:21:11;;;;;;;47.40;39.10;;;14.60;99.90;;;;;;5029963;28;20030;-70
2022/07/01 01:23:37;;;;;;;60.88;40.63;;;;;;;;;;5029052;28;20029;-70
2022/07/01 01:26:02;;;;;;;53.50;38.38;;;14.60;99.90;;;;;;5029744;28;20351;-69
2022/07/01 01:28:28;;;;;;;54.38;39.55;;;14.60;99.90;;;;;;5030390;28;20095;-70
2022/07/01 01:30:54;;;;;;;52.22;38.95;;;14.60;99.90;;;;;;5030000;28;20073;-70
2022/07/01 01:33:20;;;;;;;49.63;37.72;;;14.60;99.90;;;;;;5030056;28;20034;-71
2022/07/01 01:35:46;;;;;;;49.53;36.25;;;14.60;99.90;;;;;;5030043;28;20040;-70
2022/07/01 01:38:11;;;;;;;51.83;37.75;;;14.60;99.90;;;;;;5030093;28;20455;-69
2022/07/01 01:40:37;;;;;;;53.45;37.95;;;14.60;99.90;;;;;;5029464;28;20470;-70
2022/07/01 01:43:02;;;;;;;48.13;36.63;;;14.60;99.90;;;;;;5029739;28;20033;-70
2022/07/01 01:45:28;;;;;;;49.90;37.80;;;14.70;99.90;;;;;;5030129;28;20017;-70
2022/07/01 01:47:54;;;;;;;51.75;40.05;;;14.70;99.90;;;;;;5030105;28;20477;-70
2022/07/01 01:50:20;;;;;;;59.15;43.78;;;14.70;99.90;;;;;;5029808;28;20379;-70
2022/07/01 01:52:45;;;;;;;51.78;40.28;;;14.70;99.90;;;;;;5029739;28;20025;-70
2022/07/01 01:55:11;;;;;;;49.03;40.28;;;14.60;99.90;;;;;;5029188;28;20025;-70
2022/07/01 01:57:37;;;;;;;55.38;40.25;;;14.70;99.90;;;;;;5029813;28;20487;-70
2022/07/01 02:00:05;;;;;;;48.65;39.97;;;14.70;99.90;;;;;;5029471;28;20114;-69
2022/07/01 02:02:31;;;;;;;50.20;40.50;;;14.70;99.90;;;;;;5030049;28;20037;-70
2022/07/01 02:04:56;;;;;;;51.22;40.00;;;14.60;99.90;;;;;;5029634;28;20036;-70
2022/07/01 02:07:22;;;;;;;49.08;40.00;;;14.80;99.90;;;;;;5029323;28;20095;-70
2022/07/01 02:09:48;;;;;;;50.00;39.58;;;;;;;;;;5029149;28;20052;-70
2022/07/01 02:12:13;;;;;;;49.22;40.90;;;14.70;99.90;;;;;;5029533;28;20503;-70
2022/07/01 02:14:39;;;;;;;53.50;39.58;;;;;;;;;;5029657;28;20021;-70
2022/07/01 02:17:05;;;;;;;48.20;40.00;;;14.80;99.90;;;;;;5029378;28;20111;-70
2022/07/01 02:19:30;;;;;;;49.30;41.13;;;14.70;99.90;;;;;;5029841;28;20434;-70
2022/07/01 02:21:56;;;;;;;47.88;38.20;;;14.70;99.90;;;;;;5029543;28;20052;-70
2022/07/01 02:24:21;;;;;;;50.40;40.30;;;14.70;99.90;;;;;;5028808;28;20029;-70
2022/07/01 02:26:47;;;;;;;45.80;38.72;;;;;;;;;;5029449;28;20496;-70
2022/07/01 02:29:13;;;;;;;51.25;39.47;;;14.70;99.90;;;;;;5029303;28;20036;-69
2022/07/01 02:31:39;;;;;;;53.28;41.92;;;14.70;99.90;;;;;;5029484;28;20053;-70
2022/07/01 02:34:05;;;;;;;48.58;37.97;;;;;;;;;;5029133;28;20047;-69
2022/07/01 02:36:31;;;;;;;50.65;37.80;;;14.70;99.90;;;;;;5029530;28;20033;-70
2022/07/01 02:38:56;;;;;;;43.42;36.35;;;14.60;99.90;;;;;;5028802;28;20025;-70
2022/07/01 02:41:22;;;;;;;43.70;36.17;;;14.60;99.90;;;;;;5029034;28;20156;-70
2022/07/01 02:43:47;;;;;;;44.85;35.78;;;14.60;99.90;;;;;;5029322;28;20037;-70
2022/07/01 02:46:13;;;;;;;49.65;38.33;;;14.50;99.90;;;;;;5029185;28;20032;-70
2022/07/01 02:48:39;;;;;;;49.22;37.97;;;;;;;;;;5029422;28;20029;-70
2022/07/01 02:51:05;;;;;;;40.78;33.88;;;;;;;;;;5029072;28;20503;-70
2022/07/01 02:53:31;;;;;;;51.45;37.53;;;;;;;;;;5028978;28;20060;-70
2022/07/01 02:55:57;;;;;;;46.88;35.65;;;14.50;99.90;;;;;;5029238;28;20549;-70
2022/07/01 02:58:23;;;;;;;48.25;37.47;;;14.30;99.90;;;;;;5029017;28;20022;-70
2022/07/01 03:00:50;;;;;;;46.28;36.72;;;14.50;99.90;;;;;;5029065;28;20510;-69
2022/07/01 03:03:15;;;;;;;48.28;35.03;;;14.50;99.90;;;;;;5029102;28;20040;-70
2022/07/01 03:05:41;;;;;;;54.20;38.08;;;;;;;;;;5029049;28;20469;-70
2022/07/01 03:08:07;;;;;;;49.53;36.88;;;14.30;99.90;;;;;;5029870;28;20111;-70
2022/07/01 03:10:33;;;;;;;51.97;37.42;;;14.20;99.90;;;;;;5032840;28;20060;-70
2022/07/01 03:12:59;;;;;;;46.00;33.33;;;;;;;;;;5032667;28;20463;-70
2022/07/01 03:15:25;;;;;;;47.15;35.60;;;;;;;;;;5032710;28;20026;-69
2022/07/01 03:17:50;;;;;;;48.88;34.90;;;14.00;99.90;;;;;;5032621;28;20036;-70
2022/07/01 03:20:17;;;;;;;40.92;33.72;;;14.10;99.90;;;;;;5032518;28;20409;-70
2022/07/01 03:22:44;;;;;;;46.63;35.60;;;14.00;99.90;;;;;;5031717;28;20040;-70
2022/07/01 03:25:10;;;;;;;46.60;35.22;;;13.90;99.90;;;;;;5032472;28;20030;-70
2022/07/01 03:27:36;;;;;;;52.67;37.35;;;13.80;99.90;;;;;;5032373;28;20036;-70
2022/07/01 03:30:03;;;;;;;46.88;35.55;;;13.70;99.90;;;;;;5032295;28;20156;-70
2022/07/01 03:32:29;;;;;;;44.92;34.53;;;13.70;99.90;;;;;;5032374;28;20032;-70
2022/07/01 03:34:55;;;;;;;45.42;35.10;;;;;;;;;;5032323;28;20096;-70
2022/07/01 03:37:22;;;;;;;51.75;36.97;;;13.70;99.90;;;;;;5031797;28;20026;-70
2022/07/01 03:39:48;;;;;;;41.60;32.85;;;13.70;99.90;;;;;;5032049;28;20022;-70
2022/07/01 03:42:13;;;;;;;44.47;35.15;;;13.60;99.90;;;;;;5032127;28;20039;-70
2022/07/01 03:44:39;;;;;;;50.20;36.00;;;13.60;99.90;;;;;;5032131;28;20029;-70
2022/07/01 03:47:05;;;;;;;52.17;36.53;;;13.60;99.90;;;;;;5032002;28;20487;-70
2022/07/01 03:49:32;;;;;;;54.55;36.97;;;13.60;99.90;;;;;;5032136;28;20100;-70
2022/07/01 03:51:58;;;;;;;41.85;32.70;;;13.60;99.90;;;;;;5031436;28;20064;-70
2022/07/01 03:54:29;;;;;;;48.20;35.08;;;13.60;99.90;;;;;;5032196;28;20057;-70
2022/07/01 03:57:15;;;;;;;48.53;33.35;;;13.70;99.90;;;;;;5031961;28;20108;-70
2022/07/01 03:59:41;;;;;;;47.70;34.15;;;;;;;;;;5031403;28;20037;-70
2022/07/01 04:02:07;;;;;;;44.67;32.95;;;13.80;99.90;;;;;;5031659;28;20095;-69
2022/07/01 04:04:34;;;;;;;51.35;36.22;;;13.80;99.90;;;;;;5031321;28;20467;-70
2022/07/01 04:07:05;;;;;;;53.15;35.15;;;13.80;99.90;;;;;;5031221;28;20125;-70
2022/07/01 04:09:31;;;;;;;49.83;34.25;;;13.90;99.90;;;;;;5030713;28;20021;-70
2022/07/01 04:11:57;;;;;;;46.95;33.42;;;14.00;99.90;;;;;;5031645;28;20538;-70
2022/07/01 04:14:26;;;;;;;50.50;35.17;;;14.00;99.90;;;;;;5031450;28;20029;-70
2022/07/01 04:16:53;;;;;;;61.40;40.05;;;13.80;99.90;;;;;;5031346;28;20013;-70
2022/07/01 04:19:18;;;;;;;52.00;35.42;;;14.00;99.90;;;;;;5029711;28;20025;-70
2022/07/01 04:24:31;;;;;;;44.13;31.77;;;14.10;99.90;;;;;;5031748;28;20033;-70
2022/07/01 04:26:57;;;;;;;50.08;33.78;;;;;;;;;;5026118;28;20041;-69
2022/07/01 04:29:23;;;;;;;49.80;33.60;;;13.90;99.90;;;;;;5030413;28;20021;-69
2022/07/01 04:31:49;;;;;;;50.90;32.70;;;;;;;;;;5030751;28;20091;-69
2022/07/01 04:34:15;;;;;;;51.00;32.97;;;14.10;99.90;;;;;;5030023;28;20053;-70
2022/07/01 04:36:41;;;;;;;52.72;33.28;;;14.20;99.90;;;;;;5030667;28;20471;-70
2022/07/01 04:39:07;;;;;;;51.45;32.72;;;14.00;99.90;;;;;;5030678;28;20128;-70
2022/07/01 04:44:18;;;;;;;51.78;34.92;;;14.20;99.90;;;;;;5030266;28;20033;-70
2022/07/01 04:46:44;;;;;;;58.53;35.67;;;14.20;99.90;;;;;;5024420;28;20041;-69
2022/07/01 04:49:10;;;;;;;48.55;33.28;;;14.30;99.90;;;;;;5017818;28;20029;-70
2022/07/01 04:51:35;;;;;;;54.80;34.20;;;14.20;99.90;;;;;;5030205;28;20033;-69
2022/07/01 04:54:02;;;;;;;52.00;35.55;;;14.30;99.90;;;;;;5029986;28;20025;-70
2022/07/01 04:56:28;;;;;;;48.45;33.95;;;13.80;99.90;;;;;;5023970;28;20025;-69
2022/07/01 04:58:55;;;;;;;46.72;30.98;;;14.20;99.90;;;;;;5026570;28;20029;-69
2022/07/01 05:01:20;;;;;;;43.90;30.42;;;14.20;99.90;;;;;;5029867;28;20048;-70
2022/07/01 05:03:46;;;;;;;48.15;30.90;;;14.30;99.90;;;;;;5029771;28;20026;-70
2022/07/01 05:06:12;;;;;;;49.08;32.10;;;14.30;99.90;;;;;;5018600;28;20022;-69
2022/07/01 05:08:37;;;;;;;47.35;31.70;;;14.30;99.90;;;;;;5025560;28;20521;-70
2022/07/01 05:11:03;;;;;;;39.03;27.27;;;;;;;;;;5025849;28;20441;-69
2022/07/01 05:13:29;;;;;;;42.33;28.30;;;;;;;;;;5028686;28;20052;-69
2022/07/01 05:15:54;;;;;;;41.70;27.60;;;14.40;99.90;;;;;;5029982;28;20030;-69
2022/07/01 05:23:48;;;;;;;;;;;14.50;99.90;;;;;;5023247;28;20037;-70
2022/07/01 05:26:17;;;;;;;39.40;25.27;;;14.60;99.90;;;;;;5029455;28;19905;-70
2022/07/01 05:28:43;;;;;;;42.55;28.40;;;14.50;99.90;;;;;;5029446;28;20044;-70
2022/07/01 05:31:09;;;;;;;42.10;27.45;;;14.60;99.90;;;;;;5028463;28;20017;-69
2022/07/01 05:33:34;;;;;;;41.60;28.95;;;14.40;99.90;;;;;;5024088;28;20036;-70
2022/07/01 05:36:01;;;;;;;45.40;29.10;;;14.80;99.90;;;;;;5028242;28;20032;-70
2022/07/01 05:38:26;;;;;;;36.58;25.48;;;14.80;99.90;;;;;;5029724;28;20117;-69
2022/07/01 05:40:53;;;;;;;40.72;29.52;;;14.80;99.90;;;;;;5029436;28;20053;-69
2022/07/01 05:43:19;;;;;;;38.70;27.15;;;15.00;99.90;;;;;;5019657;28;20060;-69
2022/07/01 05:45:44;;;;;;;41.65;27.33;;;14.90;99.90;;;;;;5033930;28;20062;-69
2022/07/01 05:48:10;;;;;;;42.60;28.85;;;14.80;99.90;;;;;;5029050;28;20037;-69
2022/07/01 05:50:36;;;;;;;48.58;29.23;;;15.00;99.90;;;;;;5029136;28;20064;-69
2022/07/01 05:53:01;;;;;;;37.95;28.13;;;15.00;99.90;;;;;;5023533;28;20123;-70
2022/07/01 05:55:27;;;;;;;41.33;28.25;;;14.80;99.90;;;;;;5029405;28;20481;-70
2022/07/01 05:57:52;;;;;;;42.95;29.48;;;14.90;99.90;;;;;;5029797;28;20018;-69
2022/07/01 06:00:18;;;;;;;39.78;28.73;;;15.20;99.90;;;;;;5029470;28;20096;-70
2022/07/01 06:02:43;;;;;;;36.78;26.00;;;14.90;99.90;;;;;;5029094;28;20033;-70
2022/07/01 06:05:09;;;;;;;39.05;26.73;;;15.10;99.90;;;;;;5029605;28;20104;-70
2022/07/01 06:07:35;;;;;;;37.00;26.58;;;15.10;99.90;;;;;;5015732;28;20049;-70
2022/07/01 06:10:00;;;;;;;39.65;28.33;;;15.20;99.90;;;;;;5029535;28;20459;-70
2022/07/01 06:12:26;;;;;;;44.20;29.95;;;15.20;99.90;;;;;;5029683;28;20104;-70
2022/07/01 06:14:51;;;;;;;47.28;29.35;;;15.50;99.90;;;;;;5029564;28;20057;-70
2022/07/01 06:17:17;;;;;;;36.65;26.63;;;15.30;99.90;;;;;;5020724;28;20021;-69
2022/07/01 06:19:43;;;;;;;41.88;27.23;;;15.50;99.90;;;;;;5029077;28;20026;-70
2022/07/01 06:22:09;;;;;;;37.28;27.90;;;15.30;99.90;;;;;;5027726;28;20040;-70
2022/07/01 06:24:34;;;;;;;37.00;26.67;;;15.50;99.90;;;;;;5028901;28;20486;-70
2022/07/01 06:27:00;;;;;;;36.10;24.45;;;15.30;99.90;;;;;;5028880;28;20017;-69
2022/07/01 06:29:27;;;;;;;35.92;26.80;;;15.40;99.90;;;;;;5028448;28;20502;-70
2022/07/01 06:31:53;;;;;;;39.70;24.98;;;15.50;99.90;;;;;;5020878;28;20033;-70
2022/07/01 06:34:18;;;;;;;34.25;25.17;;;15.50;99.90;;;;;;5020877;28;20403;-69
2022/07/01 06:36:44;;;;;;;36.47;26.60;;;15.60;99.90;;;;;;5028771;28;20032;-71
2022/07/01 06:39:09;;;;;;;42.63;27.88;;;15.70;99.90;;;;;;5029307;28;20080;-71
2022/07/01 06:41:35;;;;;;;37.63;24.65;;;15.80;99.90;;;;;;5029378;28;20038;-71
2022/07/01 06:44:02;;;;;;;39.90;25.67;;;15.60;99.90;;;;;;5031518;28;20018;-72
2022/07/01 06:46:29;;;;;;;35.38;25.52;;;15.40;99.90;;;;;;5033269;28;20026;-71
2022/07/01 06:48:55;;;;;;;34.42;25.05;;;15.70;99.90;;;;;;5032855;28;20025;-71
2022/07/01 06:51:21;;;;;;;32.55;23.50;;;15.60;99.90;;;;;;5032846;28;20053;-71
2022/07/01 06:53:47;;;;;;;35.58;24.02;;;15.80;99.90;;;;;;5032940;28;20492;-71
2022/07/01 06:56:13;;;;;;;37.97;24.77;;;15.60;99.90;;;;;;5032703;28;20040;-71
2022/07/01 06:58:39;;;;;;;35.15;23.67;;;15.50;99.90;;;;;;5032319;28;20116;-71
2022/07/01 07:01:05;;;;;;;39.47;26.42;;;15.50;99.90;;;;;;5032462;28;20018;-71
2022/07/01 07:03:32;;;;;;;32.63;24.92;;;15.40;99.90;;;;;;5032667;28;20052;-71
2022/07/01 07:06:00;;;;;;;35.75;25.95;;;15.40;99.90;;;;;;5032917;28;20021;-71
2022/07/01 07:08:25;;;;;;;31.80;25.58;;;15.40;99.90;;;;;;5032898;28;20147;-71
2022/07/01 07:10:51;;;;;;;34.33;24.77;;;15.30;99.90;;;;;;5032675;28;20494;-74
2022/07/01 07:13:16;;;;;;;37.33;24.58;;;15.40;99.90;;;;;;5032327;28;20048;-71
2022/07/01 07:15:42;;;;;;;35.72;24.85;;;15.90;99.90;;;;;;5030845;28;20109;-71
2022/07/01 07:18:08;;;;;;;32.40;23.30;;;15.70;99.90;;;;;;5032386;28;20033;-71
2022/07/01 07:20:34;;;;;;;32.70;22.55;;;15.80;99.90;;;;;;5032576;28;20373;-71
2022/07/01 07:23:00;;;;;;;35.25;23.80;;;15.90;99.90;;;;;;5032291;28;20032;-72
2022/07/01 07:25:26;;;;;;;33.35;23.30;;;16.10;99.90;;;;;;5032522;28;20029;-71
2022/07/01 07:27:51;;;;;;;27.58;22.45;;;16.00;99.90;;;;;;5031648;28;20051;-71
2022/07/01 07:30:17;;;;;;;32.35;23.75;;;15.90;99.90;;;;;;5032264;28;20053;-71
2022/07/01 07:32:43;;;;;;;29.98;23.73;;;16.00;99.90;;;;;;5031806;28;20041;-71
2022/07/01 07:35:09;;;;;;;29.67;22.65;;;16.20;99.90;;;;;;5032076;28;20026;-71
2022/07/01 07:37:35;;;;;;;27.95;22.10;;;16.70;99.90;;;;;;5027558;28;20049;-71
2022/07/01 07:40:03;;;;;;;28.20;21.90;;;16.60;99.90;;;;;;5020046;28;20064;-71
2022/07/01 07:42:28;;;;;;;29.15;22.30;;;16.60;99.90;;;;;;5031828;28;20111;-70
2022/07/01 07:44:54;;;;;;;24.80;20.52;;;16.80;99.90;;;;;;5032022;28;20475;-71
2022/07/01 07:47:20;;;;;;;26.70;20.60;;;16.90;99.90;;;;;;5032025;28;20474;-71
2022/07/01 07:49:45;;;;;;;27.73;21.27;;;17.40;99.90;;;;;;5031817;28;20027;-71
2022/07/01 07:52:11;;;;;;;28.60;21.30;;;17.20;99.90;;;;;;5032003;28;20109;-71
2022/07/01 07:54:37;;;;;;;20.50;18.17;;;17.40;99.90;;;;;;5030537;28;20025;-73
2022/07/01 07:57:03;;;;;;;21.25;17.90;;;18.50;99.90;;;;;;5030036;28;20018;-71
2022/07/01 07:59:29;;;;;;;19.77;16.13;;;17.40;99.90;;;;;;5032180;28;20438;-71
2022/07/01 08:01:54;;;;;;;20.48;18.02;;;17.40;99.90;;;;;;5031534;28;20109;-71
2022/07/01 08:04:20;;;;;;;22.55;17.77;;;17.50;99.90;;;;;;5031613;28;20021;-71
2022/07/01 08:06:46;;;;;;;20.13;17.92;;;17.50;99.90;;;;;;5030327;28;20036;-71
2022/07/01 08:09:11;;;;;;;21.30;17.23;;;17.40;99.90;;;;;;5031632;28;20024;-71
2022/07/01 08:11:37;;;;;;;18.85;16.08;;;17.50;99.90;;;;;;5031327;28;20033;-71
2022/07/01 08:14:03;;;;;;;17.17;15.05;;;17.70;99.90;;;;;;5031273;28;20014;-70
2022/07/01 08:16:29;;;;;;;18.60;15.02;;;18.00;99.90;;;;;;5031684;28;20029;-71
2022/07/01 08:18:54;;;;;;;19.83;13.75;;;18.10;99.90;;;;;;5031414;28;20025;-70
2022/07/01 08:21:20;;;;;;;16.20;13.75;;;18.30;99.90;;;;;;5031319;28;20037;-71
2022/07/01 08:23:45;;;;;;;17.48;11.38;;;18.40;99.90;;;;;;5031464;28;20064;-70
2022/07/01 08:26:13;;;;;;;14.20;10.60;;;18.30;99.90;;;;;;5030804;28;20079;-70
2022/07/01 08:28:39;;;;;;;11.98;9.63;;;18.30;99.90;;;;;;5031866;28;20014;-71
2022/07/01 08:31:04;;;;;;;12.13;8.82;;;18.40;99.90;;;;;;5030918;28;20113;-70
2022/07/01 08:33:30;;;;;;;11.52;7.97;;;18.40;99.90;;;;;;5031520;28;20029;-71
2022/07/01 08:35:55;;;;;;;9.45;6.30;;;18.60;99.90;;;;;;5031188;28;20033;-70
2022/07/01 08:38:21;;;;;;;8.80;7.28;;;18.80;99.90;;;;;;5031175;28;20021;-71
2022/07/01 08:40:46;;;;;;;10.65;6.50;;;18.90;99.90;;;;;;5030644;28;20075;-70
2022/07/01 08:43:12;;;;;;;8.30;6.90;;;19.10;99.90;;;;;;5031201;28;20033;-71
2022/07/01 08:45:39;;;;;;;7.97;6.03;;;19.00;99.90;;;;;;5031043;28;20025;-71
2022/07/01 08:48:05;;;;;;;9.30;5.20;;;19.10;99.90;;;;;;5030676;28;20021;-71
2022/07/01 08:50:37;;;;;;;11.43;5.00;;;19.00;99.90;;;;;;5031109;28;20025;-71
2022/07/01 08:53:03;;;;;;;9.38;4.85;;;19.10;99.90;;;;;;5030575;28;20133;-73
2022/07/01 08:55:29;;;;;;;6.82;4.53;;;19.00;99.90;;;;;;5030647;28;20017;-73
2022/07/01 08:57:56;;;;;;;8.57;3.58;;;19.30;99.90;;;;;;5029436;28;20057;-72
2022/07/01 09:00:21;;;;;;;4.43;2.58;;;19.30;99.90;;;;;;5030598;28;20017;-72
2022/07/01 09:02:57;;;;;;;6.40;2.97;;;19.20;99.90;;;;;;5030550;28;20064;-73
2022/07/01 09:05:24;;;;;;;5.72;2.75;;;19.20;99.90;;;;;;5030063;28;20155;-70
2022/07/01 09:08:04;;;;;;;7.07;3.05;;;19.20;99.90;;;;;;5030493;28;20513;-70
2022/07/01 09:10:33;;;;;;;3.30;2.22;;;19.00;99.90;;;;;;5030096;28;20098;-70
2022/07/01 09:13:06;;;;;;;7.05;3.03;;;18.80;99.90;;;;;;5030296;28;20370;-71
2022/07/01 09:15:32;;;;;;;5.03;2.35;;;19.40;99.90;;;;;;5030567;28;20024;-71
2022/07/01 09:18:03;;;;;;;5.25;2.75;;;18.70;99.90;;;;;;5030419;28;20030;-71
2022/07/01 09:20:31;;;;;;;6.85;2.97;;;19.50;99.90;;;;;;5030420;28;20025;-70
2022/07/01 09:23:15;;;;;;;4.30;2.15;;;18.80;99.90;;;;;;5028917;28;20034;-70
2022/07/01 09:25:45;;;;;;;4.43;2.08;;;19.50;99.90;;;;;;5029743;28;20772;-70
2022/07/01 09:28:13;;;;;;;4.88;1.63;;;18.80;99.90;;;;;;5030157;28;20102;-73
2022/07/01 09:30:42;;;;;;;3.78;1.38;;;18.70;99.90;;;;;;5030171;28;20033;-72
2022/07/01 09:33:14;;;;;;;3.22;1.33;;;18.80;99.90;;;;;;5030103;28;20049;-72
2022/07/01 09:35:40;;;;;;;6.22;2.50;;;18.90;99.90;;;;;;5030026;28;20026;-72
2022/07/01 09:38:07;;;;;;;5.82;1.33;;;19.10;99.80;;;;;;5029361;28;20429;-72
2022/07/01 09:40:56;;;;;;;2.97;1.30;;;19.60;99.90;;;;;;5030164;28;20022;-72
2022/07/01 09:43:23;;;;;;;3.13;1.67;;;19.50;98.60;;;;;;5028480;28;20589;-71
2022/07/01 09:45:56;;;;;;;2.47;1.38;;;19.80;98.10;;;;;;5029915;28;20026;-71
2022/07/01 09:48:24;;;;;;;2.20;1.65;;;20.00;97.90;;;;;;5029524;28;20032;-71
2022/07/01 09:50:51;;;;;;;4.45;1.92;;;20.70;98.20;;;;;;5029700;28;20030;-70
2022/07/01 09:53:17;;;;;;;4.35;1.75;;;20.00;97.60;;;;;;5029132;28;20100;-70
2022/07/01 09:55:42;;;;;;;2.55;1.52;;;20.10;97.10;;;;;;5029564;28;20251;-70
2022/07/01 09:58:08;;;;;;;3.90;1.95;;;20.20;96.90;;;;;;5029131;28;20029;-70
2022/07/01 10:00:36;;;;;;;3.30;1.23;;;20.10;96.50;;;;;;5029535;28;20364;-69
2022/07/01 10:03:03;;;;;;;4.53;1.40;;;20.30;96.50;;;;;;5029566;28;20049;-69
2022/07/01 10:05:31;;;;;;;3.97;1.75;;;20.20;95.80;;;;;;5029638;28;20041;-69
2022/07/01 10:08:47;;;;;;;3.05;1.25;;;20.30;96.00;;;;;;5029211;28;20068;-69
2022/07/01 10:11:42;;;;;;;5.25;1.58;;;20.40;95.70;;;;;;4949196;29;20067;-69
2022/07/01 10:14:10;;;;;;;3.17;1.58;;;20.50;95.90;;;;;;4949059;29;20031;-69
2022/07/01 10:16:36;;;;;;;3.83;1.08;;;20.50;95.50;;;;;;4949384;28;20054;-70
2022/07/01 10:19:26;;;;;;;5.13;1.40;;;21.20;95.50;;;;;;4952067;29;20035;-69
2022/07/01 10:21:59;;;;;;;3.10;0.93;;;20.40;94.70;;;;;;4952713;29;20047;-69
2022/07/01 10:24:26;;;;;;;3.35;1.20;;;20.30;95.60;;;;;;4952985;29;20047;-69
2022/07/01 10:26:57;;;;;;;3.70;1.20;;;20.20;95.30;;;;;;4952835;29;20035;-70
2022/07/01 10:29:36;;;;;;;2.45;0.98;;;20.30;94.90;;;;;;4952806;29;20027;-69
2022/07/01 10:32:22;;;;;;;1.27;0.77;;;20.50;95.20;;;;;;4952873;29;20484;-69
2022/07/01 10:34:48;;;;;;;2.92;1.13;;;20.40;95.30;;;;;;4946255;29;20036;-69
2022/07/01 10:37:17;;;;;;;5.68;1.33;;;21.30;94.80;;;;;;4952369;29;20090;-69
2022/07/01 10:39:58;;;;;;;1.60;0.52;;;20.20;94.70;;;;;;4952755;29;20102;-70
2022/07/01 10:42:37;;;;;;;2.65;0.63;;;20.50;94.60;;;;;;4952694;29;20035;-69
2022/07/01 10:45:06;;;;;;;2.05;0.88;;;20.50;93.40;;;;;;4952667;29;20082;-69
2022/07/01 10:47:32;;;;;;;1.73;1.00;;;20.70;93.90;;;;;;5021369;28;20046;-69
2022/07/01 10:50:09;;;;;;;2.17;1.05;;;20.70;93.60;;;;;;5032977;28;20025;-69
2022/07/01 10:52:35;;;;;;;2.63;1.40;;;20.80;92.90;;;;;;5032561;28;20034;-69
2022/07/01 10:55:04;;;;;;;3.58;1.17;;;21.90;93.10;;;;;;5032543;28;20032;-69
2022/07/01 10:57:33;;;;;;;3.00;1.17;;;20.60;92.90;;;;;;5033180;28;20084;-69
2022/07/01 10:59:58;;;;;;;2.78;1.05;;;20.40;93.10;;;;;;5032792;28;20021;-69
2022/07/01 11:02:33;;;;;;;1.50;1.08;;;20.40;93.00;;;;;;5033067;28;20095;-69
2022/07/01 11:05:00;;;;;;;5.68;1.50;;;20.50;92.70;;;;;;5032473;28;20104;-69
2022/07/01 11:07:28;;;;;;;2.38;1.08;;;21.80;93.60;;;;;;5032509;28;20052;-69
2022/07/01 11:09:55;;;;;;;3.08;1.00;;;20.50;93.30;;;;;;5032806;28;20045;-70
2022/07/01 11:12:25;;;;;;;2.65;1.00;;;20.60;93.10;;;;;;5032461;28;20021;-69
2022/07/01 11:14:51;;;;;;;1.80;0.60;;;22.00;93.40;;;;;;5032802;28;20024;-69
2022/07/01 11:17:18;;;;;;;2.50;0.95;;;21.00;92.70;;;;;;5032452;28;20171;-69
2022/07/01 11:19:57;;;;;;;3.38;1.20;;;20.90;92.50;;;;;;5032003;28;20045;-69
2022/07/01 11:22:26;;;;;;;3.20;1.23;;;20.90;91.90;;;;;;5032228;28;20076;-70
2022/07/01 11:24:53;;;;;;;3.78;1.73;;;20.90;92.50;;;;;;5032474;28;20071;-71
2022/07/01 11:27:19;;;;;;;3.88;2.83;;;21.10;92.10;;;;;;5032132;28;20443;-71
2022/07/01 11:29:44;;;;;;;3.92;2.38;;;21.20;91.80;;;;;;5031774;28;20087;-71
2022/07/01 11:32:10;;;;;;;1.98;1.25;;;21.20;91.60;;;;;;5032374;28;20064;-70
2022/07/01 11:34:37;;;;;;;2.33;1.02;;;21.20;91.80;;;;;;5031717;28;20072;-70
2022/07/01 11:40:24;;;;;;;3.58;1.00;;;22.00;92.20;;;;;;5018488;28;20492;-71
2022/07/01 11:42:49;;;;;;;4.13;0.88;;;21.00;92.20;;;;;;5001765;28;20109;-71
2022/07/01 11:45:26;;;;;;;4.18;1.15;;;21.10;91.90;;;;;;5032019;28;20097;-70
2022/07/01 11:47:52;;;;;;;1.85;0.60;;;21.20;92.10;;;;;;5031802;28;20036;-70
2022/07/01 11:50:17;;;;;;;3.00;0.90;;;21.40;91.20;;;;;;5031437;28;20021;-70
2022/07/01 11:52:43;;;;;;;1.65;0.93;;;21.30;90.80;;;;;;5031918;28;20035;-71
2022/07/01 11:55:08;;;;;;;5.47;1.73;;;21.30;90.70;;;;;;5031750;28;20100;-71
2022/07/01 11:57:34;;;;;;;2.08;0.60;;;21.30;90.80;;;;;;5030584;28;20075;-72
2022/07/01 12:00:09;;;;;;;3.42;0.80;;;21.40;90.50;;;;;;5030135;28;20048;-71
2022/07/01 12:02:34;;;;;;;3.03;0.60;;;21.30;90.80;;;;;;5031807;28;20700;-71
2022/07/01 12:05:02;;;;;;;2.70;0.80;;;21.30;90.40;;;;;;5030901;28;20104;-70
2022/07/01 12:07:28;;;;;;;5.25;0.77;;;22.70;90.90;;;;;;5031865;28;20125;-69
2022/07/01 12:09:53;;;;;;;1.30;0.60;;;21.40;90.50;;;;;;5031567;28;20620;-71
2022/07/01 12:12:25;;;;;;;3.17;0.80;;;22.20;90.70;;;;;;5031481;28;20497;-71
2022/07/01 12:14:55;;;;;;;2.78;0.73;;;22.80;91.00;;;;;;5031616;28;20052;-71
2022/07/01 12:17:22;;;;;;;2.60;0.77;;;21.50;90.40;;;;;;5031124;28;20029;-71
2022/07/01 12:19:49;;;;;;;2.75;0.80;;;21.40;90.10;;;;;;5031001;28;20108;-71
2022/07/01 12:22:26;;;;;;;2.92;0.70;;;21.30;90.30;;;;;;5030902;28;20117;-71
2022/07/01 12:25:03;;;;;;;2.55;0.80;;;21.30;90.30;;;;;;5031580;28;20360;-71
2022/07/01 12:27:32;;;;;;;2.17;0.80;;;21.10;90.20;;;;;;5031466;28;20040;-71
2022/07/01 12:29:58;;;;;;;1.77;0.75;;;22.40;90.30;;;;;;5031283;28;20018;-71
2022/07/01 12:32:27;;;;;;;1.80;0.60;;;21.10;89.70;;;;;;5030763;28;20017;-70
2022/07/01 12:34:53;;;;;;;2.55;0.70;;;21.00;90.60;;;;;;5031009;28;20029;-70
2022/07/01 12:37:30;;;;;;;1.98;0.90;;;20.90;90.00;;;;;;5031089;28;20083;-70
2022/07/01 12:39:58;;;;;;;2.72;0.60;;;20.80;89.10;;;;;;5012851;28;20025;-71
2022/07/01 12:42:33;;;;;;;1.85;0.75;;;21.00;90.10;;;;;;5031034;28;20124;-71
2022/07/01 12:45:01;;;;;;;4.63;0.93;;;20.80;88.30;;;;;;5030732;28;20471;-70
2022/07/01 12:47:31;;;;;;;3.65;0.80;;;21.00;90.10;;;;;;5030460;28;20082;-70
2022/07/01 12:50:13;;;;;;;1.73;0.88;;;21.00;90.10;;;;;;5030722;28;20025;-71
2022/07/01 12:52:41;;;;;;;1.52;0.70;;;21.00;88.70;;;;;;5030824;28;20064;-70
2022/07/01 12:55:13;;;;;;;1.02;0.60;;;21.20;89.70;;;;;;5030658;28;20044;-71